createdAt,value
2019-04-11T00:10:13.100Z,10.95
2019-04-11T00:21:14.795Z,10.91
2019-04-11T00:32:17.122Z,10.80
2019-04-11T00:43:28.602Z,10.84
2019-04-11T00:54:21.263Z,10.84
2019-04-11T01:05:25.654Z,10.83
2019-04-11T01:16:24.819Z,10.77
2019-04-11T01:27:25.708Z,10.71
2019-04-11T01:38:28.266Z,10.55
2019-04-11T01:49:28.411Z,10.31
2019-04-11T02:00:32.305Z,10.33
2019-04-11T02:11:31.841Z,10.16
2019-04-11T02:22:34.753Z,10.11
2019-04-11T02:33:37.109Z,9.98
2019-04-11T02:44:54.316Z,9.96
2019-04-11T02:55:43.955Z,9.79
2019-04-11T03:06:45.767Z,9.79
2019-04-11T03:17:49.389Z,9.65
2019-04-11T03:28:57.429Z,9.58
2019-04-11T03:40:22.538Z,9.53
2019-04-11T03:51:04.815Z,9.64
2019-04-11T04:02:10.095Z,9.60
2019-04-11T04:13:17.178Z,9.53
2019-04-11T04:24:16.873Z,9.61
2019-04-11T04:35:23.385Z,9.64
2019-04-11T04:46:39.589Z,9.35
2019-04-11T04:57:35.436Z,9.42
2019-04-11T05:08:40.961Z,9.38
2019-04-11T05:19:42.446Z,9.34
2019-04-11T05:30:44.961Z,9.34
2019-04-11T05:41:42.062Z,9.35
2019-04-11T05:52:42.072Z,9.28
2019-04-11T06:03:48.733Z,9.17
2019-04-11T06:14:51.291Z,9.31
2019-04-11T06:25:49.230Z,9.19
2019-04-11T06:36:53.025Z,9.27
2019-04-11T06:47:53.460Z,9.29
2019-04-11T06:58:57.446Z,9.31
2019-04-11T07:10:02.122Z,9.27
2019-04-11T07:21:03.698Z,9.34
2019-04-11T07:32:06.124Z,9.28
2019-04-11T07:43:11.767Z,9.37
2019-04-11T07:54:09.703Z,9.28
2019-04-11T08:05:13.585Z,9.34
2019-04-11T08:16:15.554Z,9.37
2019-04-11T08:27:16.021Z,9.34
2019-04-11T08:38:18.515Z,9.20
2019-04-11T08:49:17.332Z,9.32
2019-04-11T09:00:20.275Z,9.31
2019-04-11T09:11:22.544Z,9.22
2019-04-11T09:22:20.525Z,9.09
2019-04-11T09:33:23.305Z,9.31
2019-04-11T09:44:17.438Z,9.43
2019-04-11T09:55:15.422Z,9.37
2019-04-11T10:06:19.451Z,9.34
2019-04-11T10:17:22.242Z,9.02
2019-04-11T10:28:25.101Z,8.88
2019-04-11T10:39:27.135Z,8.73
2019-04-11T10:50:28.385Z,8.87
2019-04-11T11:01:29.750Z,8.88
2019-04-11T11:12:27.622Z,8.79
2019-04-11T11:23:29.045Z,8.57
2019-04-11T11:34:32.639Z,8.57
2019-04-11T11:45:31.581Z,8.40
2019-04-11T11:56:33.963Z,8.22
2019-04-11T12:07:37.053Z,8.25
2019-04-11T12:18:40.293Z,8.09
2019-04-11T12:29:47.854Z,7.99
2019-04-11T12:40:50.760Z,7.88
2019-04-11T12:51:46.304Z,8.04
2019-04-11T13:02:46.421Z,7.99
2019-04-11T13:13:46.105Z,7.86
2019-04-11T13:24:47.632Z,7.63
2019-04-11T13:35:47.163Z,7.72
2019-04-11T13:46:42.037Z,7.72
2019-04-11T13:57:45.395Z,7.72
2019-04-11T14:08:42.554Z,7.60
2019-04-11T14:19:41.560Z,7.45
2019-04-11T14:30:43.359Z,7.45
2019-04-11T14:41:46.601Z,7.56
2019-04-11T14:52:46.516Z,7.60
2019-04-11T15:03:44.646Z,7.55
2019-04-11T15:14:39.728Z,7.55
2019-04-11T15:25:37.901Z,7.70
2019-04-11T15:36:41.179Z,7.75
2019-04-11T15:47:37.563Z,7.73
2019-04-11T15:58:42.662Z,7.59
2019-04-11T16:09:44.735Z,7.57
2019-04-11T16:20:41.720Z,7.56
2019-04-11T16:31:40.132Z,7.57
2019-04-11T16:42:40.444Z,7.63
2019-04-11T16:53:37.040Z,7.56
2019-04-11T17:04:35.590Z,7.62
2019-04-11T17:15:31.907Z,7.83
2019-04-11T17:26:34.504Z,7.88
2019-04-11T17:37:35.753Z,7.94
2019-04-11T17:48:36.782Z,8.03
2019-04-11T17:59:37.924Z,7.97
2019-04-11T18:10:33.636Z,8.12
2019-04-11T18:21:28.068Z,8.39
2019-04-11T18:32:24.925Z,8.21
2019-04-11T18:43:22.182Z,8.34
2019-04-11T18:54:15.743Z,8.48
2019-04-11T19:05:07.356Z,8.32
2019-04-11T19:16:06.556Z,8.48
2019-04-11T19:27:04.936Z,8.47
2019-04-11T19:37:59.882Z,8.43
2019-04-11T19:48:59.493Z,8.47
2019-04-11T19:59:56.062Z,8.36
2019-04-11T20:10:53.926Z,8.30
2019-04-11T20:21:51.389Z,8.40
2019-04-11T20:32:50.778Z,8.50
2019-04-11T20:43:46.779Z,8.50
2019-04-11T20:54:49.763Z,8.47
2019-04-11T21:05:51.447Z,8.36
2019-04-11T21:16:53.659Z,8.33
2019-04-11T21:27:52.851Z,8.32
2019-04-11T21:38:55.955Z,8.29
2019-04-11T21:49:54.233Z,8.40
2019-04-11T22:00:51.718Z,8.48
2019-04-11T22:11:51.788Z,8.55
2019-04-11T22:22:50.484Z,8.52
2019-04-11T22:33:45.778Z,8.51
2019-04-11T22:44:42.931Z,8.43
2019-04-11T22:55:38.967Z,8.37
2019-04-11T23:06:42.289Z,8.37
2019-04-11T23:17:44.089Z,8.32
2019-04-11T23:28:47.347Z,8.39
2019-04-11T23:39:51.721Z,8.36
2019-04-11T23:50:54.856Z,8.24
